sensor_id;sensor_type;location;lat;lon;timestamp;P1;durP1;ratioP1;P2;durP2;ratioP2
63945;SDS011;50122;56.330;43.838;2023-04-04T00:00:28;9.18;;;3.28;;
63945;SDS011;50122;56.330;43.838;2023-04-04T00:02:55;9.32;;;3.65;;
63945;SDS011;50122;56.330;43.838;2023-04-04T00:05:22;7.38;;;2.97;;
63945;SDS011;50122;56.330;43.838;2023-04-04T00:07:49;8.07;;;3.05;;
63945;SDS011;50122;56.330;43.838;2023-04-04T00:10:16;8.50;;;2.88;;
63945;SDS011;50122;56.330;43.838;2023-04-04T00:12:43;7.10;;;2.72;;
63945;SDS011;50122;56.330;43.838;2023-04-04T00:15:11;7.82;;;3.00;;
63945;SDS011;50122;56.330;43.838;2023-04-04T00:17:38;5.72;;;3.00;;
63945;SDS011;50122;56.330;43.838;2023-04-04T00:20:06;8.13;;;3.00;;
63945;SDS011;50122;56.330;43.838;2023-04-04T00:22:32;10.05;;;2.88;;
63945;SDS011;50122;56.330;43.838;2023-04-04T00:24:59;4.50;;;2.60;;
63945;SDS011;50122;56.330;43.838;2023-04-04T00:27:27;6.93;;;3.00;;
63945;SDS011;50122;56.330;43.838;2023-04-04T00:29:54;11.43;;;3.00;;
63945;SDS011;50122;56.330;43.838;2023-04-04T00:32:21;9.07;;;2.92;;
63945;SDS011;50122;56.330;43.838;2023-04-04T00:34:52;6.20;;;3.00;;
63945;SDS011;50122;56.330;43.838;2023-04-04T00:37:19;9.63;;;2.78;;
63945;SDS011;50122;56.330;43.838;2023-04-04T00:39:47;11.40;;;2.88;;
63945;SDS011;50122;56.330;43.838;2023-04-04T00:42:13;7.60;;;2.65;;
63945;SDS011;50122;56.330;43.838;2023-04-04T00:44:40;7.13;;;2.80;;
63945;SDS011;50122;56.330;43.838;2023-04-04T00:47:06;7.63;;;3.10;;
63945;SDS011;50122;56.330;43.838;2023-04-04T00:49:33;11.38;;;3.35;;
63945;SDS011;50122;56.330;43.838;2023-04-04T00:52:00;9.02;;;3.05;;
63945;SDS011;50122;56.330;43.838;2023-04-04T00:54:26;5.93;;;2.95;;
63945;SDS011;50122;56.330;43.838;2023-04-04T00:56:55;8.13;;;3.83;;
63945;SDS011;50122;56.330;43.838;2023-04-04T00:59:22;12.68;;;3.28;;
63945;SDS011;50122;56.330;43.838;2023-04-04T01:01:51;11.18;;;3.17;;
63945;SDS011;50122;56.330;43.838;2023-04-04T01:04:18;8.70;;;3.17;;
63945;SDS011;50122;56.330;43.838;2023-04-04T01:06:45;10.57;;;3.53;;
63945;SDS011;50122;56.330;43.838;2023-04-04T01:09:12;9.10;;;3.22;;
63945;SDS011;50122;56.330;43.838;2023-04-04T01:11:39;8.63;;;3.65;;
63945;SDS011;50122;56.330;43.838;2023-04-04T01:14:06;8.93;;;4.70;;
63945;SDS011;50122;56.330;43.838;2023-04-04T01:16:32;17.38;;;4.32;;
63945;SDS011;50122;56.330;43.838;2023-04-04T01:19:01;17.42;;;5.00;;
63945;SDS011;50122;56.330;43.838;2023-04-04T01:21:31;14.38;;;4.85;;
63945;SDS011;50122;56.330;43.838;2023-04-04T01:24:00;10.48;;;4.70;;
63945;SDS011;50122;56.330;43.838;2023-04-04T01:26:31;11.45;;;4.78;;
63945;SDS011;50122;56.330;43.838;2023-04-04T01:28:58;13.15;;;4.47;;
63945;SDS011;50122;56.330;43.838;2023-04-04T01:31:30;8.75;;;4.35;;
63945;SDS011;50122;56.330;43.838;2023-04-04T01:37:02;9.52;;;4.38;;
63945;SDS011;50122;56.330;43.838;2023-04-04T01:39:47;10.63;;;4.53;;
63945;SDS011;50122;56.330;43.838;2023-04-04T01:42:18;9.52;;;3.90;;
63945;SDS011;50122;56.330;43.838;2023-04-04T01:44:46;14.63;;;4.47;;
63945;SDS011;50122;56.330;43.838;2023-04-04T01:47:13;14.50;;;4.70;;
63945;SDS011;50122;56.330;43.838;2023-04-04T01:49:42;19.02;;;4.93;;
63945;SDS011;50122;56.330;43.838;2023-04-04T01:52:09;13.07;;;4.55;;
63945;SDS011;50122;56.330;43.838;2023-04-04T01:54:36;11.48;;;4.28;;
63945;SDS011;50122;56.330;43.838;2023-04-04T01:57:03;14.00;;;4.43;;
63945;SDS011;50122;56.330;43.838;2023-04-04T01:59:29;10.73;;;3.92;;
63945;SDS011;50122;56.330;43.838;2023-04-04T02:01:56;11.43;;;3.80;;
63945;SDS011;50122;56.330;43.838;2023-04-04T02:04:23;12.70;;;4.28;;
63945;SDS011;50122;56.330;43.838;2023-04-04T02:06:51;12.82;;;4.70;;
63945;SDS011;50122;56.330;43.838;2023-04-04T02:09:18;10.70;;;4.75;;
63945;SDS011;50122;56.330;43.838;2023-04-04T02:11:44;14.20;;;5.70;;
63945;SDS011;50122;56.330;43.838;2023-04-04T02:14:11;19.58;;;5.03;;
63945;SDS011;50122;56.330;43.838;2023-04-04T02:16:38;18.00;;;6.43;;
63945;SDS011;50122;56.330;43.838;2023-04-04T02:19:04;14.57;;;5.68;;
63945;SDS011;50122;56.330;43.838;2023-04-04T02:21:31;15.77;;;6.28;;
63945;SDS011;50122;56.330;43.838;2023-04-04T02:23:57;17.98;;;6.40;;
63945;SDS011;50122;56.330;43.838;2023-04-04T02:26:24;11.98;;;5.10;;
63945;SDS011;50122;56.330;43.838;2023-04-04T02:28:51;8.02;;;4.47;;
63945;SDS011;50122;56.330;43.838;2023-04-04T02:31:17;9.88;;;4.20;;
63945;SDS011;50122;56.330;43.838;2023-04-04T02:33:47;11.63;;;3.88;;
63945;SDS011;50122;56.330;43.838;2023-04-04T02:36:13;13.05;;;4.05;;
63945;SDS011;50122;56.330;43.838;2023-04-04T02:38:40;14.57;;;4.70;;
63945;SDS011;50122;56.330;43.838;2023-04-04T02:41:07;12.10;;;4.78;;
63945;SDS011;50122;56.330;43.838;2023-04-04T02:43:34;14.27;;;5.85;;
63945;SDS011;50122;56.330;43.838;2023-04-04T02:46:00;11.13;;;5.18;;
63945;SDS011;50122;56.330;43.838;2023-04-04T02:48:45;9.90;;;5.05;;
63945;SDS011;50122;56.330;43.838;2023-04-04T02:51:13;8.52;;;4.20;;
63945;SDS011;50122;56.330;43.838;2023-04-04T02:53:39;12.70;;;4.90;;
63945;SDS011;50122;56.330;43.838;2023-04-04T02:56:06;14.90;;;5.30;;
63945;SDS011;50122;56.330;43.838;2023-04-04T02:58:33;20.08;;;5.85;;
63945;SDS011;50122;56.330;43.838;2023-04-04T03:01:00;21.70;;;6.65;;
63945;SDS011;50122;56.330;43.838;2023-04-04T03:03:26;17.05;;;6.68;;
63945;SDS011;50122;56.330;43.838;2023-04-04T03:05:54;15.35;;;6.90;;
63945;SDS011;50122;56.330;43.838;2023-04-04T03:08:20;23.60;;;6.55;;
63945;SDS011;50122;56.330;43.838;2023-04-04T03:10:47;20.05;;;5.40;;
63945;SDS011;50122;56.330;43.838;2023-04-04T03:13:14;15.20;;;5.85;;
63945;SDS011;50122;56.330;43.838;2023-04-04T03:15:43;13.38;;;5.10;;
63945;SDS011;50122;56.330;43.838;2023-04-04T03:18:12;14.27;;;4.85;;
63945;SDS011;50122;56.330;43.838;2023-04-04T03:20:40;15.15;;;4.68;;
63945;SDS011;50122;56.330;43.838;2023-04-04T03:23:07;15.65;;;5.50;;
63945;SDS011;50122;56.330;43.838;2023-04-04T03:25:33;19.85;;;4.82;;
63945;SDS011;50122;56.330;43.838;2023-04-04T03:28:08;19.80;;;4.43;;
63945;SDS011;50122;56.330;43.838;2023-04-04T03:30:38;11.55;;;4.70;;
63945;SDS011;50122;56.330;43.838;2023-04-04T03:33:05;11.85;;;4.40;;
63945;SDS011;50122;56.330;43.838;2023-04-04T03:35:36;15.82;;;4.88;;
63945;SDS011;50122;56.330;43.838;2023-04-04T03:38:04;16.65;;;4.90;;
63945;SDS011;50122;56.330;43.838;2023-04-04T03:40:31;19.60;;;4.82;;
63945;SDS011;50122;56.330;43.838;2023-04-04T03:42:57;13.55;;;4.40;;
63945;SDS011;50122;56.330;43.838;2023-04-04T03:45:24;17.58;;;4.13;;
63945;SDS011;50122;56.330;43.838;2023-04-04T03:47:51;13.52;;;3.70;;
63945;SDS011;50122;56.330;43.838;2023-04-04T03:50:18;15.75;;;4.18;;
63945;SDS011;50122;56.330;43.838;2023-04-04T03:52:45;20.60;;;4.63;;
63945;SDS011;50122;56.330;43.838;2023-04-04T03:55:13;23.77;;;4.80;;
63945;SDS011;50122;56.330;43.838;2023-04-04T03:57:40;26.10;;;4.55;;
63945;SDS011;50122;56.330;43.838;2023-04-04T04:00:06;15.32;;;4.80;;
63945;SDS011;50122;56.330;43.838;2023-04-04T04:02:34;19.05;;;4.47;;
63945;SDS011;50122;56.330;43.838;2023-04-04T04:05:01;10.90;;;4.18;;
63945;SDS011;50122;56.330;43.838;2023-04-04T04:07:28;17.02;;;5.88;;
63945;SDS011;50122;56.330;43.838;2023-04-04T04:09:55;17.63;;;4.57;;
63945;SDS011;50122;56.330;43.838;2023-04-04T04:12:22;17.58;;;4.43;;
63945;SDS011;50122;56.330;43.838;2023-04-04T04:14:48;17.25;;;4.32;;
63945;SDS011;50122;56.330;43.838;2023-04-04T04:17:15;31.60;;;4.88;;
63945;SDS011;50122;56.330;43.838;2023-04-04T04:19:42;21.63;;;4.47;;
63945;SDS011;50122;56.330;43.838;2023-04-04T04:22:08;18.05;;;4.57;;
63945;SDS011;50122;56.330;43.838;2023-04-04T04:24:35;20.92;;;5.03;;
63945;SDS011;50122;56.330;43.838;2023-04-04T04:27:02;24.92;;;5.05;;
63945;SDS011;50122;56.330;43.838;2023-04-04T18:26:01;83.78;;;14.10;;
63945;SDS011;50122;56.330;43.838;2023-04-04T18:28:32;66.45;;;11.55;;
63945;SDS011;50122;56.330;43.838;2023-04-04T18:31:01;61.95;;;10.30;;
63945;SDS011;50122;56.330;43.838;2023-04-04T18:33:28;68.20;;;15.20;;
63945;SDS011;50122;56.330;43.838;2023-04-04T18:35:55;63.95;;;14.02;;
63945;SDS011;50122;56.330;43.838;2023-04-04T18:38:25;54.38;;;14.85;;
63945;SDS011;50122;56.330;43.838;2023-04-04T18:40:56;55.60;;;15.27;;
63945;SDS011;50122;56.330;43.838;2023-04-04T18:43:23;55.70;;;13.85;;
63945;SDS011;50122;56.330;43.838;2023-04-04T18:45:52;52.55;;;12.20;;
63945;SDS011;50122;56.330;43.838;2023-04-04T18:48:20;35.58;;;10.18;;
63945;SDS011;50122;56.330;43.838;2023-04-04T18:50:52;51.22;;;11.27;;
63945;SDS011;50122;56.330;43.838;2023-04-04T18:53:20;43.92;;;8.80;;
63945;SDS011;50122;56.330;43.838;2023-04-04T18:55:46;48.58;;;10.50;;
63945;SDS011;50122;56.330;43.838;2023-04-04T18:58:14;44.20;;;8.98;;
63945;SDS011;50122;56.330;43.838;2023-04-04T19:00:43;48.25;;;11.73;;
63945;SDS011;50122;56.330;43.838;2023-04-04T19:03:10;31.20;;;9.32;;
63945;SDS011;50122;56.330;43.838;2023-04-04T19:05:38;51.90;;;11.98;;
63945;SDS011;50122;56.330;43.838;2023-04-04T19:08:06;44.20;;;11.93;;
63945;SDS011;50122;56.330;43.838;2023-04-04T19:10:36;44.47;;;12.63;;
63945;SDS011;50122;56.330;43.838;2023-04-04T19:13:04;46.25;;;10.82;;
63945;SDS011;50122;56.330;43.838;2023-04-04T19:15:31;51.97;;;13.45;;
63945;SDS011;50122;56.330;43.838;2023-04-04T19:17:59;46.10;;;15.20;;
63945;SDS011;50122;56.330;43.838;2023-04-04T19:20:26;58.67;;;17.90;;
63945;SDS011;50122;56.330;43.838;2023-04-04T19:22:52;59.50;;;15.55;;
63945;SDS011;50122;56.330;43.838;2023-04-04T19:25:19;46.08;;;16.13;;
63945;SDS011;50122;56.330;43.838;2023-04-04T19:27:47;48.33;;;16.15;;
63945;SDS011;50122;56.330;43.838;2023-04-04T19:33:08;54.22;;;16.05;;
63945;SDS011;50122;56.330;43.838;2023-04-04T19:35:45;46.15;;;14.50;;
63945;SDS011;50122;56.330;43.838;2023-04-04T19:38:17;51.60;;;13.80;;
63945;SDS011;50122;56.330;43.838;2023-04-04T19:40:47;53.80;;;13.52;;
63945;SDS011;50122;56.330;43.838;2023-04-04T19:43:17;41.75;;;12.82;;
63945;SDS011;50122;56.330;43.838;2023-04-04T19:45:49;40.45;;;12.68;;
63945;SDS011;50122;56.330;43.838;2023-04-04T19:53:52;49.28;;;13.70;;
63945;SDS011;50122;56.330;43.838;2023-04-04T19:56:20;50.95;;;13.00;;
63945;SDS011;50122;56.330;43.838;2023-04-04T19:58:58;40.70;;;12.50;;
63945;SDS011;50122;56.330;43.838;2023-04-04T20:01:27;39.70;;;13.45;;
63945;SDS011;50122;56.330;43.838;2023-04-04T20:04:07;42.30;;;12.10;;
63945;SDS011;50122;56.330;43.838;2023-04-04T20:06:35;40.63;;;12.68;;
63945;SDS011;50122;56.330;43.838;2023-04-04T20:09:11;33.65;;;11.95;;
63945;SDS011;50122;56.330;43.838;2023-04-04T20:11:57;30.48;;;8.85;;
63945;SDS011;50122;56.330;43.838;2023-04-04T20:14:23;26.63;;;8.02;;
63945;SDS011;50122;56.330;43.838;2023-04-04T20:16:50;24.65;;;8.07;;
63945;SDS011;50122;56.330;43.838;2023-04-04T20:19:18;29.85;;;8.23;;
63945;SDS011;50122;56.330;43.838;2023-04-04T20:21:46;28.30;;;8.18;;
63945;SDS011;50122;56.330;43.838;2023-04-04T20:24:15;34.75;;;9.50;;
63945;SDS011;50122;56.330;43.838;2023-04-04T20:29:18;36.90;;;10.48;;
63945;SDS011;50122;56.330;43.838;2023-04-04T20:31:57;33.10;;;11.18;;
63945;SDS011;50122;56.330;43.838;2023-04-04T20:34:29;79.40;;;23.02;;
63945;SDS011;50122;56.330;43.838;2023-04-04T20:37:06;67.88;;;20.33;;
63945;SDS011;50122;56.330;43.838;2023-04-04T20:42:13;53.10;;;12.73;;
63945;SDS011;50122;56.330;43.838;2023-04-04T20:44:44;41.13;;;11.75;;
63945;SDS011;50122;56.330;43.838;2023-04-04T20:52:47;62.80;;;15.27;;
63945;SDS011;50122;56.330;43.838;2023-04-04T20:55:19;57.03;;;13.50;;
63945;SDS011;50122;56.330;43.838;2023-04-04T20:57:48;51.13;;;12.75;;
63945;SDS011;50122;56.330;43.838;2023-04-04T21:02:55;61.33;;;16.75;;
63945;SDS011;50122;56.330;43.838;2023-04-04T21:05:26;150.02;;;36.47;;
63945;SDS011;50122;56.330;43.838;2023-04-04T21:07:54;139.00;;;34.92;;
63945;SDS011;50122;56.330;43.838;2023-04-04T21:12:58;66.53;;;16.52;;
63945;SDS011;50122;56.330;43.838;2023-04-04T21:15:29;49.00;;;14.68;;
63945;SDS011;50122;56.330;43.838;2023-04-04T21:17:59;48.45;;;14.35;;
63945;SDS011;50122;56.330;43.838;2023-04-04T21:25:56;110.15;;;28.63;;
63945;SDS011;50122;56.330;43.838;2023-04-04T21:28:26;90.55;;;21.90;;
63945;SDS011;50122;56.330;43.838;2023-04-04T21:30:56;53.00;;;15.77;;
63945;SDS011;50122;56.330;43.838;2023-04-04T21:33:22;54.97;;;15.65;;
63945;SDS011;50122;56.330;43.838;2023-04-04T21:35:50;70.60;;;20.10;;
63945;SDS011;50122;56.330;43.838;2023-04-04T21:40:58;161.45;;;40.47;;
63945;SDS011;50122;56.330;43.838;2023-04-04T21:43:46;59.53;;;18.33;;
63945;SDS011;50122;56.330;43.838;2023-04-04T21:46:13;41.50;;;17.15;;
63945;SDS011;50122;56.330;43.838;2023-04-04T21:48:40;44.50;;;13.43;;
63945;SDS011;50122;56.330;43.838;2023-04-04T21:51:09;50.38;;;15.85;;
63945;SDS011;50122;56.330;43.838;2023-04-04T21:53:36;46.28;;;14.73;;
63945;SDS011;50122;56.330;43.838;2023-04-04T21:56:02;55.08;;;14.82;;
63945;SDS011;50122;56.330;43.838;2023-04-04T21:58:29;40.38;;;13.48;;
63945;SDS011;50122;56.330;43.838;2023-04-04T22:00:56;34.85;;;12.45;;
63945;SDS011;50122;56.330;43.838;2023-04-04T22:03:23;31.95;;;12.57;;
63945;SDS011;50122;56.330;43.838;2023-04-04T22:05:51;41.15;;;12.82;;
63945;SDS011;50122;56.330;43.838;2023-04-04T22:08:18;31.23;;;12.30;;
63945;SDS011;50122;56.330;43.838;2023-04-04T22:10:44;31.80;;;13.73;;
63945;SDS011;50122;56.330;43.838;2023-04-04T22:13:14;42.70;;;13.48;;
63945;SDS011;50122;56.330;43.838;2023-04-04T22:15:45;38.40;;;14.55;;
63945;SDS011;50122;56.330;43.838;2023-04-04T22:18:14;53.97;;;15.00;;
63945;SDS011;50122;56.330;43.838;2023-04-04T22:20:42;41.80;;;15.60;;
63945;SDS011;50122;56.330;43.838;2023-04-04T22:23:10;40.53;;;14.02;;
63945;SDS011;50122;56.330;43.838;2023-04-04T22:25:38;44.10;;;14.48;;
63945;SDS011;50122;56.330;43.838;2023-04-04T22:28:06;38.78;;;15.20;;
63945;SDS011;50122;56.330;43.838;2023-04-04T22:30:35;44.05;;;15.60;;
63945;SDS011;50122;56.330;43.838;2023-04-04T22:33:09;54.78;;;18.50;;
63945;SDS011;50122;56.330;43.838;2023-04-04T22:35:37;52.70;;;17.95;;
63945;SDS011;50122;56.330;43.838;2023-04-04T22:38:04;40.35;;;16.15;;
63945;SDS011;50122;56.330;43.838;2023-04-04T22:40:32;43.83;;;17.02;;
63945;SDS011;50122;56.330;43.838;2023-04-04T22:42:59;42.45;;;15.60;;
63945;SDS011;50122;56.330;43.838;2023-04-04T22:45:26;34.53;;;16.33;;
63945;SDS011;50122;56.330;43.838;2023-04-04T22:47:54;45.38;;;15.55;;
63945;SDS011;50122;56.330;43.838;2023-04-04T22:50:23;33.70;;;14.65;;
63945;SDS011;50122;56.330;43.838;2023-04-04T22:52:50;34.97;;;14.23;;
63945;SDS011;50122;56.330;43.838;2023-04-04T22:55:22;39.88;;;15.20;;
63945;SDS011;50122;56.330;43.838;2023-04-04T22:57:50;38.80;;;15.63;;
63945;SDS011;50122;56.330;43.838;2023-04-04T23:00:17;44.28;;;15.43;;
63945;SDS011;50122;56.330;43.838;2023-04-04T23:02:46;47.13;;;16.77;;
63945;SDS011;50122;56.330;43.838;2023-04-04T23:05:15;49.67;;;17.85;;
63945;SDS011;50122;56.330;43.838;2023-04-04T23:07:43;46.50;;;16.65;;
63945;SDS011;50122;56.330;43.838;2023-04-04T23:10:12;49.95;;;18.00;;
63945;SDS011;50122;56.330;43.838;2023-04-04T23:12:40;47.67;;;18.13;;
63945;SDS011;50122;56.330;43.838;2023-04-04T23:15:06;44.30;;;18.52;;
63945;SDS011;50122;56.330;43.838;2023-04-04T23:17:34;47.35;;;26.30;;
63945;SDS011;50122;56.330;43.838;2023-04-04T23:20:01;182.15;;;101.15;;
63945;SDS011;50122;56.330;43.838;2023-04-04T23:22:35;161.85;;;91.22;;
63945;SDS011;50122;56.330;43.838;2023-04-04T23:25:04;147.45;;;79.82;;
63945;SDS011;50122;56.330;43.838;2023-04-04T23:27:33;113.15;;;61.45;;
63945;SDS011;50122;56.330;43.838;2023-04-04T23:30:00;92.50;;;48.20;;
63945;SDS011;50122;56.330;43.838;2023-04-04T23:32:30;43.22;;;17.50;;
63945;SDS011;50122;56.330;43.838;2023-04-04T23:34:58;37.28;;;16.55;;
63945;SDS011;50122;56.330;43.838;2023-04-04T23:37:25;42.08;;;16.90;;
63945;SDS011;50122;56.330;43.838;2023-04-04T23:39:52;33.67;;;16.42;;
63945;SDS011;50122;56.330;43.838;2023-04-04T23:42:18;34.50;;;15.43;;
63945;SDS011;50122;56.330;43.838;2023-04-04T23:44:45;35.92;;;16.77;;
63945;SDS011;50122;56.330;43.838;2023-04-04T23:47:12;56.50;;;21.13;;
63945;SDS011;50122;56.330;43.838;2023-04-04T23:49:38;38.17;;;15.98;;
63945;SDS011;50122;56.330;43.838;2023-04-04T23:52:06;42.13;;;14.15;;
63945;SDS011;50122;56.330;43.838;2023-04-04T23:54:32;36.10;;;13.35;;
63945;SDS011;50122;56.330;43.838;2023-04-04T23:56:59;31.65;;;12.80;;
63945;SDS011;50122;56.330;43.838;2023-04-04T23:59:26;29.05;;;11.70;;
